sensor_id;sensor_type;location;lat;lon;timestamp;P1;durP1;ratioP1;P2;durP2;ratioP2
48327;SDS011;34136;51.022;7.082;2023-04-25T00:01:21;11.88;;;4.72;;
48327;SDS011;34136;51.022;7.082;2023-04-25T00:04:07;13.45;;;5.20;;
48327;SDS011;34136;51.022;7.082;2023-04-25T00:06:54;13.38;;;4.40;;
48327;SDS011;34136;51.022;7.082;2023-04-25T00:09:41;7.82;;;4.13;;
48327;SDS011;34136;51.022;7.082;2023-04-25T00:12:27;12.15;;;5.15;;
48327;SDS011;34136;51.022;7.082;2023-04-25T00:15:13;9.85;;;4.70;;
48327;SDS011;34136;51.022;7.082;2023-04-25T00:17:59;12.90;;;5.10;;
48327;SDS011;34136;51.022;7.082;2023-04-25T00:20:45;10.43;;;4.47;;
48327;SDS011;34136;51.022;7.082;2023-04-25T00:23:32;11.98;;;4.68;;
48327;SDS011;34136;51.022;7.082;2023-04-25T00:26:18;11.20;;;5.00;;
48327;SDS011;34136;51.022;7.082;2023-04-25T00:29:04;12.45;;;5.88;;
48327;SDS011;34136;51.022;7.082;2023-04-25T00:31:51;11.38;;;4.55;;
48327;SDS011;34136;51.022;7.082;2023-04-25T00:34:37;14.77;;;5.38;;
48327;SDS011;34136;51.022;7.082;2023-04-25T00:37:23;10.13;;;4.93;;
48327;SDS011;34136;51.022;7.082;2023-04-25T00:40:10;15.68;;;5.60;;
48327;SDS011;34136;51.022;7.082;2023-04-25T00:42:56;15.02;;;6.25;;
48327;SDS011;34136;51.022;7.082;2023-04-25T00:45:42;18.02;;;6.35;;
48327;SDS011;34136;51.022;7.082;2023-04-25T00:48:29;12.15;;;6.00;;
48327;SDS011;34136;51.022;7.082;2023-04-25T00:51:16;17.05;;;6.88;;
48327;SDS011;34136;51.022;7.082;2023-04-25T00:54:05;13.25;;;6.05;;
48327;SDS011;34136;51.022;7.082;2023-04-25T00:56:52;15.10;;;6.35;;
48327;SDS011;34136;51.022;7.082;2023-04-25T00:59:38;9.38;;;5.32;;
48327;SDS011;34136;51.022;7.082;2023-04-25T01:05:17;10.80;;;5.50;;
48327;SDS011;34136;51.022;7.082;2023-04-25T01:08:04;12.93;;;6.13;;
48327;SDS011;34136;51.022;7.082;2023-04-25T01:10:51;13.98;;;6.55;;
48327;SDS011;34136;51.022;7.082;2023-04-25T01:13:37;16.40;;;6.70;;
48327;SDS011;34136;51.022;7.082;2023-04-25T01:16:23;15.27;;;6.38;;
48327;SDS011;34136;51.022;7.082;2023-04-25T01:19:11;12.40;;;6.80;;
48327;SDS011;34136;51.022;7.082;2023-04-25T01:22:01;18.02;;;7.03;;
48327;SDS011;34136;51.022;7.082;2023-04-25T01:24:49;20.05;;;6.22;;
48327;SDS011;34136;51.022;7.082;2023-04-25T01:27:36;15.75;;;6.35;;
48327;SDS011;34136;51.022;7.082;2023-04-25T01:30:22;11.35;;;5.47;;
48327;SDS011;34136;51.022;7.082;2023-04-25T01:33:10;25.98;;;6.18;;
48327;SDS011;34136;51.022;7.082;2023-04-25T01:35:58;18.88;;;6.00;;
48327;SDS011;34136;51.022;7.082;2023-04-25T01:38:44;15.27;;;5.47;;
48327;SDS011;34136;51.022;7.082;2023-04-25T01:41:31;16.95;;;6.15;;
48327;SDS011;34136;51.022;7.082;2023-04-25T01:44:18;15.85;;;5.75;;
48327;SDS011;34136;51.022;7.082;2023-04-25T01:47:04;18.55;;;5.88;;
48327;SDS011;34136;51.022;7.082;2023-04-25T01:49:51;18.65;;;6.35;;
48327;SDS011;34136;51.022;7.082;2023-04-25T01:52:37;14.35;;;5.53;;
48327;SDS011;34136;51.022;7.082;2023-04-25T01:55:24;19.92;;;6.15;;
48327;SDS011;34136;51.022;7.082;2023-04-25T01:58:24;18.83;;;5.78;;
48327;SDS011;34136;51.022;7.082;2023-04-25T02:01:25;17.90;;;6.30;;
48327;SDS011;34136;51.022;7.082;2023-04-25T02:04:30;14.80;;;5.05;;
48327;SDS011;34136;51.022;7.082;2023-04-25T02:07:17;16.92;;;5.80;;
48327;SDS011;34136;51.022;7.082;2023-04-25T02:10:10;13.27;;;5.40;;
48327;SDS011;34136;51.022;7.082;2023-04-25T02:13:09;14.15;;;5.30;;
48327;SDS011;34136;51.022;7.082;2023-04-25T02:16:02;16.27;;;5.18;;
48327;SDS011;34136;51.022;7.082;2023-04-25T02:18:49;17.17;;;5.82;;
48327;SDS011;34136;51.022;7.082;2023-04-25T02:21:36;13.38;;;5.20;;
48327;SDS011;34136;51.022;7.082;2023-04-25T02:24:23;16.65;;;5.20;;
48327;SDS011;34136;51.022;7.082;2023-04-25T02:27:09;21.08;;;5.38;;
48327;SDS011;34136;51.022;7.082;2023-04-25T02:29:56;18.20;;;5.20;;
48327;SDS011;34136;51.022;7.082;2023-04-25T02:32:42;18.13;;;4.88;;
48327;SDS011;34136;51.022;7.082;2023-04-25T02:35:28;14.77;;;5.47;;
48327;SDS011;34136;51.022;7.082;2023-04-25T02:38:15;14.05;;;4.78;;
48327;SDS011;34136;51.022;7.082;2023-04-25T02:41:01;13.15;;;5.05;;
48327;SDS011;34136;51.022;7.082;2023-04-25T02:43:48;11.80;;;5.18;;
48327;SDS011;34136;51.022;7.082;2023-04-25T02:46:34;15.48;;;5.25;;
48327;SDS011;34136;51.022;7.082;2023-04-25T02:49:20;14.20;;;5.32;;
48327;SDS011;34136;51.022;7.082;2023-04-25T02:52:07;14.75;;;5.07;;
48327;SDS011;34136;51.022;7.082;2023-04-25T02:54:53;13.55;;;5.30;;
48327;SDS011;34136;51.022;7.082;2023-04-25T02:57:40;12.18;;;5.55;;
48327;SDS011;34136;51.022;7.082;2023-04-25T03:00:30;15.02;;;5.18;;
48327;SDS011;34136;51.022;7.082;2023-04-25T03:03:16;14.48;;;5.30;;
48327;SDS011;34136;51.022;7.082;2023-04-25T03:06:03;16.85;;;5.78;;
48327;SDS011;34136;51.022;7.082;2023-04-25T03:08:52;19.13;;;6.10;;
48327;SDS011;34136;51.022;7.082;2023-04-25T03:11:38;14.30;;;6.00;;
48327;SDS011;34136;51.022;7.082;2023-04-25T03:14:25;19.63;;;6.10;;
48327;SDS011;34136;51.022;7.082;2023-04-25T03:17:12;14.27;;;5.80;;
48327;SDS011;34136;51.022;7.082;2023-04-25T03:19:58;17.42;;;6.55;;
48327;SDS011;34136;51.022;7.082;2023-04-25T03:22:45;15.40;;;6.18;;
48327;SDS011;34136;51.022;7.082;2023-04-25T03:25:31;11.60;;;5.57;;
48327;SDS011;34136;51.022;7.082;2023-04-25T03:28:17;14.90;;;6.43;;
48327;SDS011;34136;51.022;7.082;2023-04-25T03:31:04;11.52;;;6.55;;
48327;SDS011;34136;51.022;7.082;2023-04-25T03:33:50;14.10;;;5.72;;
48327;SDS011;34136;51.022;7.082;2023-04-25T03:36:39;15.32;;;6.45;;
48327;SDS011;34136;51.022;7.082;2023-04-25T03:39:26;15.60;;;7.28;;
48327;SDS011;34136;51.022;7.082;2023-04-25T03:42:12;11.10;;;6.05;;
48327;SDS011;34136;51.022;7.082;2023-04-25T03:44:58;14.73;;;6.05;;
48327;SDS011;34136;51.022;7.082;2023-04-25T03:47:45;12.20;;;6.40;;
48327;SDS011;34136;51.022;7.082;2023-04-25T03:50:32;12.48;;;5.53;;
48327;SDS011;34136;51.022;7.082;2023-04-25T03:53:18;17.77;;;6.47;;
48327;SDS011;34136;51.022;7.082;2023-04-25T03:56:27;14.27;;;5.68;;
48327;SDS011;34136;51.022;7.082;2023-04-25T03:59:20;13.55;;;6.15;;
48327;SDS011;34136;51.022;7.082;2023-04-25T04:02:07;14.38;;;5.47;;
48327;SDS011;34136;51.022;7.082;2023-04-25T04:04:54;12.88;;;4.97;;
48327;SDS011;34136;51.022;7.082;2023-04-25T04:07:40;13.85;;;5.93;;
48327;SDS011;34136;51.022;7.082;2023-04-25T04:10:29;15.45;;;6.50;;
48327;SDS011;34136;51.022;7.082;2023-04-25T04:13:16;13.77;;;5.85;;
48327;SDS011;34136;51.022;7.082;2023-04-25T04:16:04;15.98;;;6.30;;
48327;SDS011;34136;51.022;7.082;2023-04-25T04:18:51;15.57;;;6.38;;
48327;SDS011;34136;51.022;7.082;2023-04-25T04:21:37;14.75;;;5.65;;
48327;SDS011;34136;51.022;7.082;2023-04-25T04:24:24;13.40;;;5.57;;
48327;SDS011;34136;51.022;7.082;2023-04-25T04:27:19;11.30;;;5.88;;
48327;SDS011;34136;51.022;7.082;2023-04-25T04:30:25;14.27;;;5.88;;
48327;SDS011;34136;51.022;7.082;2023-04-25T04:33:16;10.98;;;5.88;;
48327;SDS011;34136;51.022;7.082;2023-04-25T04:36:05;13.63;;;6.15;;
48327;SDS011;34136;51.022;7.082;2023-04-25T04:38:51;13.40;;;6.35;;
48327;SDS011;34136;51.022;7.082;2023-04-25T04:41:50;13.82;;;6.57;;
48327;SDS011;34136;51.022;7.082;2023-04-25T04:45:08;17.38;;;6.75;;
48327;SDS011;34136;51.022;7.082;2023-04-25T04:48:10;15.93;;;6.72;;
48327;SDS011;34136;51.022;7.082;2023-04-25T04:51:12;18.38;;;6.90;;
48327;SDS011;34136;51.022;7.082;2023-04-25T04:54:14;14.25;;;7.05;;
48327;SDS011;34136;51.022;7.082;2023-04-25T04:57:24;18.15;;;5.93;;
48327;SDS011;34136;51.022;7.082;2023-04-25T05:00:20;19.77;;;7.10;;
48327;SDS011;34136;51.022;7.082;2023-04-25T05:03:33;18.40;;;7.10;;
48327;SDS011;34136;51.022;7.082;2023-04-25T05:06:32;19.48;;;7.25;;
48327;SDS011;34136;51.022;7.082;2023-04-25T05:09:37;12.23;;;6.55;;
48327;SDS011;34136;51.022;7.082;2023-04-25T05:12:47;15.57;;;6.22;;
48327;SDS011;34136;51.022;7.082;2023-04-25T05:15:57;18.75;;;7.07;;
48327;SDS011;34136;51.022;7.082;2023-04-25T05:19:09;18.35;;;6.80;;
48327;SDS011;34136;51.022;7.082;2023-04-25T05:22:08;18.73;;;6.28;;
48327;SDS011;34136;51.022;7.082;2023-04-25T05:25:10;23.40;;;6.68;;
48327;SDS011;34136;51.022;7.082;2023-04-25T05:28:12;15.48;;;6.75;;
48327;SDS011;34136;51.022;7.082;2023-04-25T05:30:59;17.10;;;6.18;;
48327;SDS011;34136;51.022;7.082;2023-04-25T05:33:50;19.63;;;6.07;;
48327;SDS011;34136;51.022;7.082;2023-04-25T05:36:39;23.52;;;6.38;;
48327;SDS011;34136;51.022;7.082;2023-04-25T05:39:27;24.75;;;6.05;;
48327;SDS011;34136;51.022;7.082;2023-04-25T05:42:27;18.70;;;6.03;;
48327;SDS011;34136;51.022;7.082;2023-04-25T05:45:33;18.45;;;6.22;;
48327;SDS011;34136;51.022;7.082;2023-04-25T05:48:53;16.35;;;5.93;;
48327;SDS011;34136;51.022;7.082;2023-04-25T05:51:58;24.20;;;6.45;;
48327;SDS011;34136;51.022;7.082;2023-04-25T05:55:03;23.77;;;6.07;;
48327;SDS011;34136;51.022;7.082;2023-04-25T05:57:51;28.40;;;6.15;;
48327;SDS011;34136;51.022;7.082;2023-04-25T06:00:37;20.08;;;6.03;;
48327;SDS011;34136;51.022;7.082;2023-04-25T06:03:24;24.33;;;6.35;;
48327;SDS011;34136;51.022;7.082;2023-04-25T06:06:11;21.45;;;6.85;;
48327;SDS011;34136;51.022;7.082;2023-04-25T06:08:58;24.55;;;7.18;;
48327;SDS011;34136;51.022;7.082;2023-04-25T06:11:44;24.70;;;6.32;;
48327;SDS011;34136;51.022;7.082;2023-04-25T06:14:30;26.35;;;6.90;;
48327;SDS011;34136;51.022;7.082;2023-04-25T06:17:17;23.85;;;6.05;;
48327;SDS011;34136;51.022;7.082;2023-04-25T06:20:04;22.98;;;6.55;;
48327;SDS011;34136;51.022;7.082;2023-04-25T06:22:51;21.08;;;6.15;;
48327;SDS011;34136;51.022;7.082;2023-04-25T06:25:38;20.45;;;7.10;;
48327;SDS011;34136;51.022;7.082;2023-04-25T06:28:25;19.13;;;6.65;;
48327;SDS011;34136;51.022;7.082;2023-04-25T06:31:11;18.35;;;6.18;;
48327;SDS011;34136;51.022;7.082;2023-04-25T06:33:58;27.80;;;6.30;;
48327;SDS011;34136;51.022;7.082;2023-04-25T06:36:46;19.65;;;6.20;;
48327;SDS011;34136;51.022;7.082;2023-04-25T06:39:34;25.65;;;5.55;;
48327;SDS011;34136;51.022;7.082;2023-04-25T06:42:21;22.05;;;6.15;;
48327;SDS011;34136;51.022;7.082;2023-04-25T06:45:17;28.73;;;6.32;;
48327;SDS011;34136;51.022;7.082;2023-04-25T06:48:04;23.88;;;6.13;;
48327;SDS011;34136;51.022;7.082;2023-04-25T06:50:50;19.20;;;5.18;;
48327;SDS011;34136;51.022;7.082;2023-04-25T06:53:37;13.90;;;5.70;;
48327;SDS011;34136;51.022;7.082;2023-04-25T06:56:26;18.60;;;5.57;;
48327;SDS011;34136;51.022;7.082;2023-04-25T06:59:26;21.77;;;5.45;;
48327;SDS011;34136;51.022;7.082;2023-04-25T07:02:12;23.33;;;5.68;;
48327;SDS011;34136;51.022;7.082;2023-04-25T07:04:59;19.58;;;5.22;;
48327;SDS011;34136;51.022;7.082;2023-04-25T07:07:47;19.95;;;5.32;;
48327;SDS011;34136;51.022;7.082;2023-04-25T07:10:33;17.77;;;5.47;;
48327;SDS011;34136;51.022;7.082;2023-04-25T07:13:21;21.63;;;5.35;;
48327;SDS011;34136;51.022;7.082;2023-04-25T07:16:07;14.75;;;5.43;;
48327;SDS011;34136;51.022;7.082;2023-04-25T07:18:55;24.42;;;5.78;;
48327;SDS011;34136;51.022;7.082;2023-04-25T07:21:41;22.08;;;5.35;;
48327;SDS011;34136;51.022;7.082;2023-04-25T07:24:28;18.63;;;5.40;;
48327;SDS011;34136;51.022;7.082;2023-04-25T07:27:15;17.33;;;5.22;;
48327;SDS011;34136;51.022;7.082;2023-04-25T07:30:22;20.98;;;5.60;;
48327;SDS011;34136;51.022;7.082;2023-04-25T07:33:08;18.48;;;6.30;;
48327;SDS011;34136;51.022;7.082;2023-04-25T07:35:55;21.60;;;5.47;;
48327;SDS011;34136;51.022;7.082;2023-04-25T07:38:42;21.77;;;5.65;;
48327;SDS011;34136;51.022;7.082;2023-04-25T07:41:28;20.80;;;5.63;;
48327;SDS011;34136;51.022;7.082;2023-04-25T07:44:15;18.25;;;5.35;;
48327;SDS011;34136;51.022;7.082;2023-04-25T07:47:01;14.85;;;4.85;;
48327;SDS011;34136;51.022;7.082;2023-04-25T07:49:47;23.95;;;5.65;;
48327;SDS011;34136;51.022;7.082;2023-04-25T07:52:34;21.40;;;4.65;;
48327;SDS011;34136;51.022;7.082;2023-04-25T07:58:28;15.70;;;4.47;;
48327;SDS011;34136;51.022;7.082;2023-04-25T08:01:18;13.02;;;4.22;;
48327;SDS011;34136;51.022;7.082;2023-04-25T08:04:17;11.35;;;3.03;;
48327;SDS011;34136;51.022;7.082;2023-04-25T08:07:12;13.30;;;4.25;;
48327;SDS011;34136;51.022;7.082;2023-04-25T08:10:07;16.58;;;3.78;;
48327;SDS011;34136;51.022;7.082;2023-04-25T08:12:54;15.13;;;3.95;;
48327;SDS011;34136;51.022;7.082;2023-04-25T08:15:42;12.20;;;3.78;;
48327;SDS011;34136;51.022;7.082;2023-04-25T08:18:29;13.43;;;4.20;;
48327;SDS011;34136;51.022;7.082;2023-04-25T08:21:15;15.07;;;3.83;;
48327;SDS011;34136;51.022;7.082;2023-04-25T08:24:02;16.95;;;3.83;;
48327;SDS011;34136;51.022;7.082;2023-04-25T08:26:52;14.35;;;3.45;;
48327;SDS011;34136;51.022;7.082;2023-04-25T08:29:41;14.75;;;3.60;;
48327;SDS011;34136;51.022;7.082;2023-04-25T08:32:27;14.23;;;3.63;;
48327;SDS011;34136;51.022;7.082;2023-04-25T08:35:29;14.40;;;2.95;;
48327;SDS011;34136;51.022;7.082;2023-04-25T08:38:15;8.73;;;3.20;;
48327;SDS011;34136;51.022;7.082;2023-04-25T08:41:03;13.57;;;3.35;;
48327;SDS011;34136;51.022;7.082;2023-04-25T08:43:52;12.25;;;3.35;;
48327;SDS011;34136;51.022;7.082;2023-04-25T08:46:40;11.27;;;3.20;;
48327;SDS011;34136;51.022;7.082;2023-04-25T08:49:53;14.77;;;3.67;;
48327;SDS011;34136;51.022;7.082;2023-04-25T08:52:44;14.55;;;3.95;;
48327;SDS011;34136;51.022;7.082;2023-04-25T08:55:31;11.77;;;4.75;;
48327;SDS011;34136;51.022;7.082;2023-04-25T08:58:18;19.02;;;5.43;;
48327;SDS011;34136;51.022;7.082;2023-04-25T09:01:05;13.00;;;3.95;;
48327;SDS011;34136;51.022;7.082;2023-04-25T09:03:59;14.07;;;4.03;;
48327;SDS011;34136;51.022;7.082;2023-04-25T09:06:46;18.00;;;4.20;;
48327;SDS011;34136;51.022;7.082;2023-04-25T09:09:33;13.95;;;3.88;;
48327;SDS011;34136;51.022;7.082;2023-04-25T09:12:20;15.02;;;4.25;;
48327;SDS011;34136;51.022;7.082;2023-04-25T09:15:11;20.75;;;4.07;;
48327;SDS011;34136;51.022;7.082;2023-04-25T09:18:21;15.23;;;3.90;;
48327;SDS011;34136;51.022;7.082;2023-04-25T09:21:11;14.43;;;3.90;;
48327;SDS011;34136;51.022;7.082;2023-04-25T09:23:58;11.00;;;3.60;;
48327;SDS011;34136;51.022;7.082;2023-04-25T09:26:46;10.93;;;3.92;;
48327;SDS011;34136;51.022;7.082;2023-04-25T09:29:34;12.05;;;2.78;;
48327;SDS011;34136;51.022;7.082;2023-04-25T09:32:22;13.50;;;2.95;;
48327;SDS011;34136;51.022;7.082;2023-04-25T09:35:12;14.48;;;3.38;;
48327;SDS011;34136;51.022;7.082;2023-04-25T09:38:11;13.38;;;3.53;;
48327;SDS011;34136;51.022;7.082;2023-04-25T09:41:11;15.27;;;3.30;;
48327;SDS011;34136;51.022;7.082;2023-04-25T09:44:01;14.27;;;2.80;;
48327;SDS011;34136;51.022;7.082;2023-04-25T09:46:51;8.55;;;3.03;;
48327;SDS011;34136;51.022;7.082;2023-04-25T09:49:40;12.15;;;2.92;;
48327;SDS011;34136;51.022;7.082;2023-04-25T09:52:30;13.23;;;2.95;;
48327;SDS011;34136;51.022;7.082;2023-04-25T09:55:34;11.85;;;3.22;;
48327;SDS011;34136;51.022;7.082;2023-04-25T09:58:21;16.52;;;3.53;;
48327;SDS011;34136;51.022;7.082;2023-04-25T10:01:10;14.05;;;3.72;;
48327;SDS011;34136;51.022;7.082;2023-04-25T10:04:10;11.35;;;2.70;;
48327;SDS011;34136;51.022;7.082;2023-04-25T10:07:29;9.32;;;2.70;;
48327;SDS011;34136;51.022;7.082;2023-04-25T10:10:16;7.05;;;2.30;;
48327;SDS011;34136;51.022;7.082;2023-04-25T10:13:03;7.32;;;2.33;;
48327;SDS011;34136;51.022;7.082;2023-04-25T10:15:50;9.45;;;2.65;;
48327;SDS011;34136;51.022;7.082;2023-04-25T10:18:38;8.18;;;2.20;;
48327;SDS011;34136;51.022;7.082;2023-04-25T10:21:25;11.15;;;3.15;;
48327;SDS011;34136;51.022;7.082;2023-04-25T10:24:14;9.90;;;2.88;;
48327;SDS011;34136;51.022;7.082;2023-04-25T10:27:01;10.05;;;2.80;;
48327;SDS011;34136;51.022;7.082;2023-04-25T10:30:07;11.40;;;2.95;;
48327;SDS011;34136;51.022;7.082;2023-04-25T10:33:00;9.23;;;2.75;;
48327;SDS011;34136;51.022;7.082;2023-04-25T10:35:47;10.95;;;3.15;;
48327;SDS011;34136;51.022;7.082;2023-04-25T10:38:35;10.20;;;2.97;;
48327;SDS011;34136;51.022;7.082;2023-04-25T10:41:22;9.73;;;2.88;;
48327;SDS011;34136;51.022;7.082;2023-04-25T10:44:08;10.30;;;2.50;;
48327;SDS011;34136;51.022;7.082;2023-04-25T10:46:55;12.45;;;3.15;;
48327;SDS011;34136;51.022;7.082;2023-04-25T10:49:42;10.35;;;3.30;;
48327;SDS011;34136;51.022;7.082;2023-04-25T10:52:29;7.07;;;2.58;;
48327;SDS011;34136;51.022;7.082;2023-04-25T10:55:15;11.13;;;2.78;;
48327;SDS011;34136;51.022;7.082;2023-04-25T10:58:01;6.43;;;2.03;;
48327;SDS011;34136;51.022;7.082;2023-04-25T11:00:48;12.23;;;2.22;;
48327;SDS011;34136;51.022;7.082;2023-04-25T11:03:42;5.57;;;2.05;;
48327;SDS011;34136;51.022;7.082;2023-04-25T11:06:37;6.20;;;2.25;;
48327;SDS011;34136;51.022;7.082;2023-04-25T11:09:41;6.70;;;2.30;;
48327;SDS011;34136;51.022;7.082;2023-04-25T11:12:27;10.18;;;2.17;;
48327;SDS011;34136;51.022;7.082;2023-04-25T11:15:15;7.65;;;2.03;;
48327;SDS011;34136;51.022;7.082;2023-04-25T11:18:01;5.35;;;2.00;;
48327;SDS011;34136;51.022;7.082;2023-04-25T11:20:48;8.35;;;2.20;;
48327;SDS011;34136;51.022;7.082;2023-04-25T11:23:34;5.55;;;1.58;;
48327;SDS011;34136;51.022;7.082;2023-04-25T11:26:21;7.57;;;2.33;;
48327;SDS011;34136;51.022;7.082;2023-04-25T11:29:08;6.93;;;2.40;;
48327;SDS011;34136;51.022;7.082;2023-04-25T11:31:54;8.82;;;2.40;;
48327;SDS011;34136;51.022;7.082;2023-04-25T11:34:42;9.38;;;2.60;;
48327;SDS011;34136;51.022;7.082;2023-04-25T11:37:29;6.50;;;1.85;;
48327;SDS011;34136;51.022;7.082;2023-04-25T11:40:16;8.38;;;2.30;;
48327;SDS011;34136;51.022;7.082;2023-04-25T11:43:02;7.00;;;2.05;;
48327;SDS011;34136;51.022;7.082;2023-04-25T11:45:49;5.05;;;1.40;;
48327;SDS011;34136;51.022;7.082;2023-04-25T11:48:37;7.57;;;2.08;;
48327;SDS011;34136;51.022;7.082;2023-04-25T11:51:27;6.05;;;1.88;;
48327;SDS011;34136;51.022;7.082;2023-04-25T11:54:13;5.57;;;1.63;;
48327;SDS011;34136;51.022;7.082;2023-04-25T11:56:59;7.18;;;2.05;;
48327;SDS011;34136;51.022;7.082;2023-04-25T11:59:46;3.90;;;1.30;;
48327;SDS011;34136;51.022;7.082;2023-04-25T12:02:34;6.88;;;1.40;;
48327;SDS011;34136;51.022;7.082;2023-04-25T12:05:23;7.43;;;1.40;;
48327;SDS011;34136;51.022;7.082;2023-04-25T12:08:12;4.05;;;1.40;;
48327;SDS011;34136;51.022;7.082;2023-04-25T12:10:59;3.80;;;1.45;;
48327;SDS011;34136;51.022;7.082;2023-04-25T12:13:45;4.55;;;1.50;;
48327;SDS011;34136;51.022;7.082;2023-04-25T12:16:40;4.68;;;1.77;;
48327;SDS011;34136;51.022;7.082;2023-04-25T12:19:31;5.95;;;1.52;;
48327;SDS011;34136;51.022;7.082;2023-04-25T12:22:20;5.88;;;1.52;;
48327;SDS011;34136;51.022;7.082;2023-04-25T12:25:07;7.72;;;1.50;;
48327;SDS011;34136;51.022;7.082;2023-04-25T12:27:54;7.68;;;1.85;;
48327;SDS011;34136;51.022;7.082;2023-04-25T12:30:53;6.50;;;1.80;;
48327;SDS011;34136;51.022;7.082;2023-04-25T12:33:40;5.00;;;1.80;;
48327;SDS011;34136;51.022;7.082;2023-04-25T12:36:26;7.43;;;1.63;;
48327;SDS011;34136;51.022;7.082;2023-04-25T12:39:20;4.25;;;1.42;;
48327;SDS011;34136;51.022;7.082;2023-04-25T12:42:08;5.28;;;1.63;;
48327;SDS011;34136;51.022;7.082;2023-04-25T12:44:54;6.72;;;1.48;;
48327;SDS011;34136;51.022;7.082;2023-04-25T12:47:40;6.55;;;2.20;;
48327;SDS011;34136;51.022;7.082;2023-04-25T12:50:27;8.48;;;1.80;;
48327;SDS011;34136;51.022;7.082;2023-04-25T12:53:13;9.90;;;1.95;;
48327;SDS011;34136;51.022;7.082;2023-04-25T12:55:59;8.55;;;1.95;;
48327;SDS011;34136;51.022;7.082;2023-04-25T12:58:45;6.53;;;1.73;;
48327;SDS011;34136;51.022;7.082;2023-04-25T13:01:32;6.00;;;1.83;;
48327;SDS011;34136;51.022;7.082;2023-04-25T13:04:18;8.88;;;1.92;;
48327;SDS011;34136;51.022;7.082;2023-04-25T13:07:04;6.65;;;1.77;;
48327;SDS011;34136;51.022;7.082;2023-04-25T13:09:50;6.30;;;2.00;;
48327;SDS011;34136;51.022;7.082;2023-04-25T13:12:36;9.40;;;2.33;;
48327;SDS011;34136;51.022;7.082;2023-04-25T13:15:23;5.82;;;2.22;;
48327;SDS011;34136;51.022;7.082;2023-04-25T13:18:08;5.63;;;2.05;;
48327;SDS011;34136;51.022;7.082;2023-04-25T13:21:10;5.63;;;1.95;;
48327;SDS011;34136;51.022;7.082;2023-04-25T13:23:56;7.70;;;2.42;;
48327;SDS011;34136;51.022;7.082;2023-04-25T13:26:42;6.35;;;2.10;;
48327;SDS011;34136;51.022;7.082;2023-04-25T13:29:29;9.55;;;2.17;;
48327;SDS011;34136;51.022;7.082;2023-04-25T13:32:15;7.00;;;2.25;;
48327;SDS011;34136;51.022;7.082;2023-04-25T13:35:02;7.55;;;2.72;;
48327;SDS011;34136;51.022;7.082;2023-04-25T13:37:49;10.60;;;2.72;;
48327;SDS011;34136;51.022;7.082;2023-04-25T13:40:35;8.38;;;2.67;;
48327;SDS011;34136;51.022;7.082;2023-04-25T13:43:21;8.82;;;2.38;;
48327;SDS011;34136;51.022;7.082;2023-04-25T13:46:07;8.10;;;2.38;;
48327;SDS011;34136;51.022;7.082;2023-04-25T13:48:53;6.68;;;2.30;;
48327;SDS011;34136;51.022;7.082;2023-04-25T13:51:40;7.28;;;2.20;;
48327;SDS011;34136;51.022;7.082;2023-04-25T13:54:26;9.40;;;2.80;;
48327;SDS011;34136;51.022;7.082;2023-04-25T13:57:12;7.97;;;2.53;;
48327;SDS011;34136;51.022;7.082;2023-04-25T13:59:58;9.95;;;2.90;;
48327;SDS011;34136;51.022;7.082;2023-04-25T14:02:45;6.97;;;2.63;;
48327;SDS011;34136;51.022;7.082;2023-04-25T14:05:30;8.82;;;2.58;;
48327;SDS011;34136;51.022;7.082;2023-04-25T14:08:17;6.15;;;2.50;;
48327;SDS011;34136;51.022;7.082;2023-04-25T14:11:03;9.88;;;2.90;;
48327;SDS011;34136;51.022;7.082;2023-04-25T14:13:49;8.48;;;2.67;;
48327;SDS011;34136;51.022;7.082;2023-04-25T14:16:35;11.32;;;2.75;;
48327;SDS011;34136;51.022;7.082;2023-04-25T14:19:22;8.23;;;2.50;;
48327;SDS011;34136;51.022;7.082;2023-04-25T14:22:08;10.38;;;2.50;;
48327;SDS011;34136;51.022;7.082;2023-04-25T14:24:55;7.72;;;2.40;;
48327;SDS011;34136;51.022;7.082;2023-04-25T14:27:41;5.65;;;2.28;;
48327;SDS011;34136;51.022;7.082;2023-04-25T14:30:27;7.68;;;1.95;;
48327;SDS011;34136;51.022;7.082;2023-04-25T14:33:13;5.35;;;1.75;;
48327;SDS011;34136;51.022;7.082;2023-04-25T14:35:59;5.70;;;2.10;;
48327;SDS011;34136;51.022;7.082;2023-04-25T14:38:45;7.20;;;2.00;;
48327;SDS011;34136;51.022;7.082;2023-04-25T14:41:31;5.68;;;1.60;;
48327;SDS011;34136;51.022;7.082;2023-04-25T14:44:17;5.07;;;1.52;;
48327;SDS011;34136;51.022;7.082;2023-04-25T14:47:03;6.28;;;1.50;;
48327;SDS011;34136;51.022;7.082;2023-04-25T14:49:50;5.47;;;1.55;;
48327;SDS011;34136;51.022;7.082;2023-04-25T14:52:35;3.15;;;1.45;;
48327;SDS011;34136;51.022;7.082;2023-04-25T14:55:21;6.32;;;1.70;;
48327;SDS011;34136;51.022;7.082;2023-04-25T14:58:07;7.70;;;1.60;;
48327;SDS011;34136;51.022;7.082;2023-04-25T15:00:54;5.50;;;1.90;;
48327;SDS011;34136;51.022;7.082;2023-04-25T15:03:40;4.25;;;1.65;;
48327;SDS011;34136;51.022;7.082;2023-04-25T15:06:26;4.85;;;1.42;;
48327;SDS011;34136;51.022;7.082;2023-04-25T15:09:12;7.28;;;1.65;;
48327;SDS011;34136;51.022;7.082;2023-04-25T15:11:59;8.15;;;2.05;;
48327;SDS011;34136;51.022;7.082;2023-04-25T15:14:45;5.43;;;1.50;;
48327;SDS011;34136;51.022;7.082;2023-04-25T15:17:31;7.30;;;1.85;;
48327;SDS011;34136;51.022;7.082;2023-04-25T15:20:17;4.05;;;1.42;;
48327;SDS011;34136;51.022;7.082;2023-04-25T15:23:03;4.45;;;1.48;;
48327;SDS011;34136;51.022;7.082;2023-04-25T15:25:50;6.97;;;1.90;;
48327;SDS011;34136;51.022;7.082;2023-04-25T15:28:37;7.07;;;2.08;;
48327;SDS011;34136;51.022;7.082;2023-04-25T15:31:23;7.20;;;2.10;;
48327;SDS011;34136;51.022;7.082;2023-04-25T15:34:09;8.77;;;2.40;;
48327;SDS011;34136;51.022;7.082;2023-04-25T15:36:55;9.80;;;1.83;;
48327;SDS011;34136;51.022;7.082;2023-04-25T15:39:41;7.93;;;1.80;;
48327;SDS011;34136;51.022;7.082;2023-04-25T15:42:29;8.10;;;1.63;;
48327;SDS011;34136;51.022;7.082;2023-04-25T15:45:15;6.25;;;1.77;;
48327;SDS011;34136;51.022;7.082;2023-04-25T15:48:02;7.70;;;1.67;;
48327;SDS011;34136;51.022;7.082;2023-04-25T15:50:49;7.93;;;1.80;;
48327;SDS011;34136;51.022;7.082;2023-04-25T15:53:35;6.60;;;1.88;;
48327;SDS011;34136;51.022;7.082;2023-04-25T15:56:20;9.88;;;2.13;;
48327;SDS011;34136;51.022;7.082;2023-04-25T15:59:07;8.70;;;1.48;;
48327;SDS011;34136;51.022;7.082;2023-04-25T16:01:53;7.30;;;1.83;;
48327;SDS011;34136;51.022;7.082;2023-04-25T16:04:39;5.82;;;1.90;;
48327;SDS011;34136;51.022;7.082;2023-04-25T16:07:25;7.10;;;1.60;;
48327;SDS011;34136;51.022;7.082;2023-04-25T16:10:12;5.57;;;1.65;;
48327;SDS011;34136;51.022;7.082;2023-04-25T16:12:59;6.07;;;2.00;;
48327;SDS011;34136;51.022;7.082;2023-04-25T16:15:46;9.63;;;2.00;;
48327;SDS011;34136;51.022;7.082;2023-04-25T16:18:31;6.40;;;2.08;;
48327;SDS011;34136;51.022;7.082;2023-04-25T16:21:18;6.22;;;1.70;;
48327;SDS011;34136;51.022;7.082;2023-04-25T16:24:04;5.88;;;1.95;;
48327;SDS011;34136;51.022;7.082;2023-04-25T16:26:50;4.53;;;1.83;;
48327;SDS011;34136;51.022;7.082;2023-04-25T16:29:37;8.32;;;2.60;;
48327;SDS011;34136;51.022;7.082;2023-04-25T16:32:24;10.10;;;2.72;;
48327;SDS011;34136;51.022;7.082;2023-04-25T16:35:12;6.97;;;2.22;;
48327;SDS011;34136;51.022;7.082;2023-04-25T16:38:04;6.53;;;2.00;;
48327;SDS011;34136;51.022;7.082;2023-04-25T16:41:02;8.40;;;1.83;;
48327;SDS011;34136;51.022;7.082;2023-04-25T16:43:49;7.35;;;1.60;;
48327;SDS011;34136;51.022;7.082;2023-04-25T16:46:38;5.53;;;1.67;;
48327;SDS011;34136;51.022;7.082;2023-04-25T16:49:40;4.80;;;1.45;;
48327;SDS011;34136;51.022;7.082;2023-04-25T16:52:29;5.13;;;1.70;;
48327;SDS011;34136;51.022;7.082;2023-04-25T16:55:20;6.80;;;1.60;;
48327;SDS011;34136;51.022;7.082;2023-04-25T16:58:11;8.23;;;2.05;;